• Join FlightAware (Why Join?)
  • Login
  • US Flag 
03:51PM EST


 

Airport Tracker/Info


-or-


 

Live Flight TrackerFlight Track Log ✈ DAL6055 ✈ 19-Apr-2013 ✈ KDTW - KSDF

Flight Track Log - Related Links

Times and Time Zones

All times are in EDT time to prevent confusion due to time zone crossing. See the DAL6055 flight status page for this flight to view local times or setup timezone preferences in your user account.

Time Position Orientation Groundspeed Altitude Reporting Facility
EDT Latitude Longitude Course Direction KTS MPH feet Rate Location/Type
09:29AM 42.2064 -83.3508 180° South 152 175 1,300  Level FAA TRACON SMA TRACON (SMA)
09:29AM 42.1922 -83.3536 188° South 163 188 2,200 2,400 Climbing FAA TRACON SMA TRACON (SMA)
09:29AM 42.1769 -83.3556 185° South 171 197 2,900 2,520 Climbing FAA TRACON SMA TRACON (SMA)
09:30AM 42.1589 -83.3575 185° South 174 200 3,900 2,520 Climbing FAA TRACON SMA TRACON (SMA)
09:30AM 42.1444 -83.3589 184° South 174 200 4,600 2,100 Climbing FAA TRACON SMA TRACON (SMA)
09:30AM 42.1264 -83.3597 182° South 182 209 5,300 2,100 Climbing FAA TRACON SMA TRACON (SMA)
09:31AM 42.1108 -83.3589 178° South 194 223 6,000 2,580 Climbing FAA TRACON SMA TRACON (SMA)
09:31AM 42.0942 -83.3578 177° South 192 221 7,000 3,000 Climbing FAA TRACON SMA TRACON (SMA)
09:31AM 42.0744 -83.3592 183° South 188 216 8,000 2,700 Climbing FAA TRACON SMA TRACON (SMA)
09:32AM 41.9091 -83.5437 180° South  Level Estimated
09:32AM 42.0589 -83.3583 178° South 181 208 8,800  Level FAA TRACON SMA TRACON (SMA)
09:32AM 42.0436 -83.3572 177° South 180 207 9,600 2,400 Climbing FAA TRACON SMA TRACON (SMA)
09:32AM 42.0242 -83.3567 179° South 180 207 10,400 1,920 Climbing FAA TRACON SMA TRACON (SMA)
09:33AM 41.8332 -83.5910 180° South  Level Estimated
09:33AM 42.0081 -83.3558 178° South 185 213 10,900  Level FAA TRACON SMA TRACON (SMA)
09:33AM 41.9908 -83.3553 179° South 197 227 11,300 1,320 Climbing FAA TRACON SMA TRACON (SMA)
09:33AM 41.9669 -83.3539 178° South 219 252 11,800 1,320 Climbing FAA TRACON SMA TRACON (SMA)
09:34AM 41.7574 -83.6382 180° South  Level Estimated
09:34AM 41.9472 -83.3536 179° South 226 260 12,200  Level FAA TRACON SMA TRACON (SMA)
09:34AM 41.9269 -83.3525 178° South 234 269 12,500 1,020 Climbing FAA TRACON SMA TRACON (SMA)
09:34AM 41.8994 -83.3517 179° South 250 288 12,900 1,320 Climbing FAA TRACON SMA TRACON (SMA)
09:35AM 41.8764 -83.3508 178° South 262 302 13,400 1,620 Climbing FAA TRACON SMA TRACON (SMA)
09:35AM 41.8536 -83.3494 177° South 265 305 14,000 1,380 Climbing FAA TRACON SMA TRACON (SMA)
09:35AM 41.8308 -83.3489 179° South 266 306 14,300 1,320 Climbing FAA TRACON SMA TRACON (SMA)
09:36AM 41.8017 -83.3478 178° South 270 311 14,900 1,620 Climbing FAA TRACON SMA TRACON (SMA)
09:36AM 41.7778 -83.3456 176° South 274 315 15,400 1,020 Climbing FAA TRACON SMA TRACON (SMA)
09:36AM 41.7539 -83.3453 180° South 277 319 15,600 840 Climbing FAA TRACON SMA TRACON (SMA)
09:37AM 41.7231 -83.3442 178° South 285 328 16,000 1,020 Climbing FAA TRACON SMA TRACON (SMA)
09:37AM 41.6981 -83.3431 178° South 288 331 16,300 1,020 Climbing FAA TRACON SMA TRACON (SMA)
09:37AM 41.6739 -83.3514 194° South 288 331 16,700 1,320 Climbing FAA TRACON SMA TRACON (SMA)
09:38AM 41.6461 -83.3664 202° Southwest 284 327 17,200 1,200 Climbing FAA TRACON SMA TRACON (SMA)
09:38AM 41.6231 -83.3772 199° South 280 322 17,500 1,500 Climbing FAA TRACON SMA TRACON (SMA)
09:38AM 41.6003 -83.3889 201° Southwest 285 328 18,200 1,560 Climbing FAA TRACON SMA TRACON (SMA)
09:39AM 41.5714 -83.4042 202° Southwest 288 331 18,600 1,020 Climbing FAA TRACON SMA TRACON (SMA)
09:39AM 41.5478 -83.4156 200° South 289 333 18,900 600 Climbing FAA TRACON SMA TRACON (SMA)
09:39AM 41.5242 -83.4275 201° Southwest 291 335 19,000 120 Climbing FAA TRACON SMA TRACON (SMA)
09:40AM 41.4939 -83.4431 201° Southwest 300 345 19,000  Level FAA TRACON SMA TRACON (SMA)
09:40AM 41.4689 -83.4558 201° Southwest 304 350 19,000 720 Level FAA TRACON SMA TRACON (SMA)
09:40AM 41.4442 -83.4678 200° South 307 353 19,500 1,800 Climbing FAA TRACON SMA TRACON (SMA)
09:41AM 41.4133 -83.4831 200° South 305 351 20,200 1,320 Climbing FAA TRACON SMA TRACON (SMA)
09:41AM 41.3894 -83.4950 201° Southwest 302 348 20,400 600 Climbing FAA TRACON SMA TRACON (SMA)
09:41AM 41.3650 -83.5069 200° South 302 348 20,600 900 Climbing FAA TRACON SMA TRACON (SMA)
09:42AM 41.3408 -83.5200 202° Southwest 304 350 21,000 540 Climbing FAA TRACON SMA TRACON (SMA)
09:42AM 41.3408 -83.5200 360° North 304 350 21,000 1,320 Level FAA TRACON SMA TRACON (SMA)
09:43AM 41.2603 -83.5611 201° Southwest 299 344 22,400 1,380 Climbing Cleveland Center
09:44AM 41.1822 -83.6014 201° Southwest 299 344 23,400 780 Climbing Cleveland Center
09:45AM 41.1039 -83.6392 200° South 299 344 24,000 300 Climbing Cleveland Center
09:46AM 41.0150 -83.6875 202° Southwest 304 350 24,000  Level Cleveland Center
09:48AM 40.8403 -83.7700 200° South 335 386 24,000  Level Indianapolis Center
09:49AM 40.7550 -83.8125 201° Southwest 328 377 24,000  Level Indianapolis Center
09:50AM 40.6689 -83.8544 200° South 326 375 24,000  Level Indianapolis Center
09:51AM 40.5681 -83.9050 201° Southwest 330 380 24,000 -60 Level Indianapolis Center
09:52AM 40.4833 -83.9469 201° Southwest 325 374 23,900 -60 Descending Indianapolis Center
09:53AM 40.3981 -83.9892 201° Southwest 324 373 23,900  Level Indianapolis Center
09:54AM 40.3119 -84.0303 200° South 326 375 24,000  Climbing Indianapolis Center
09:55AM 40.2275 -84.0747 202° Southwest 326 375 24,000  Level Indianapolis Center
09:56AM 40.1436 -84.1189 202° Southwest 325 374 24,000  Level Indianapolis Center
09:57AM 40.0458 -84.1708 202° Southwest 323 372 24,000 -60 Level Indianapolis Center
09:58AM 39.9614 -84.2139 201° Southwest 324 373 23,900 -60 Descending Indianapolis Center
09:59AM 39.8764 -84.2592 202° Southwest 327 376 23,900  Level Indianapolis Center
10:00AM 39.7925 -84.3039 202° Southwest 325 374 24,000 -480 Climbing Indianapolis Center
10:01AM 39.7139 -84.3442 202° Southwest 308 354 22,900 -1,500 Descending Indianapolis Center
10:02AM 39.6392 -84.3825 202° Southwest 291 335 20,900 -2,040 Descending Indianapolis Center
10:03AM 39.5678 -84.4200 202° Southwest 279 321 18,700 -1,860 Descending Indianapolis Center
10:04AM 39.4869 -84.4603 201° Southwest 268 308 17,100 -780 Descending Indianapolis Center
10:05AM 39.4178 -84.4972 202° Southwest 266 306 17,100 -360 Level Indianapolis Center
10:06AM 39.3478 -84.5325 201° Southwest 268 308 16,400 -900 Descending Indianapolis Center
10:07AM 39.2767 -84.5694 202° Southwest 271 312 15,300 -960 Descending Indianapolis Center
10:08AM 39.2069 -84.6056 202° Southwest 270 311 14,500 -660 Descending Indianapolis Center
10:09AM 39.1383 -84.6417 202° Southwest 263 303 14,000 -300 Descending Indianapolis Center
10:10AM 39.0583 -84.6819 201° Southwest 260 299 14,000  Level Indianapolis Center
10:11AM 39.0167 -84.7000 199° South 264 304 14,100 -120 Climbing Cincinnati TRACON
10:12AM 38.9500 -84.7667 218° Southwest 258 297 13,800 -720 Descending Cincinnati TRACON
10:13AM 38.8833 -84.8167 210° Southwest 257 296 12,700 -960 Descending Cincinnati TRACON
10:14AM 38.8500 -84.8667 229° Southwest 254 292 12,100 -660 Descending Cincinnati TRACON
10:15AM 38.8233 -84.8906 215° Southwest 256 295 11,900 -180 Descending Indianapolis Center
10:16AM 38.7683 -84.9444 217° Southwest 248 285 11,900  Level Indianapolis Center
10:17AM 38.7017 -85.0072 216° Southwest 246 283 11,900  Level Indianapolis Center
10:18AM 38.6461 -85.0619 218° Southwest 249 287 11,900  Level Indianapolis Center
10:19AM 38.5939 -85.1108 216° Southwest 246 283 12,000 -780 Climbing Indianapolis Center
10:20AM 38.5333 -85.1686 217° Southwest 233 268 10,400 -1,680 Descending Indianapolis Center
10:21AM 38.4908 -85.2089 217° Southwest 216 249 8,600 -1,800 Descending Indianapolis Center
10:21AM 38.4686 -85.2311 218° Southwest 215 247 7,900 -1,680 Descending FAA TRACON SMA TRACON (SMA)
10:22AM 38.4511 -85.2478 217° Southwest 206 237 7,400 -1,140 Descending FAA TRACON SMA TRACON (SMA)
10:22AM 38.4347 -85.2642 218° Southwest 197 227 7,100 -600 Descending FAA TRACON SMA TRACON (SMA)
10:22AM 38.4211 -85.2764 215° Southwest 193 222 7,000 -180 Descending FAA TRACON SMA TRACON (SMA)
10:23AM 38.4111 -85.2853 215° Southwest 192 221 7,000  Level FAA TRACON SMA TRACON (SMA)
10:23AM 38.3950 -85.3011 218° Southwest 188 216 7,000  Level FAA TRACON SMA TRACON (SMA)
10:23AM 38.3822 -85.3133 217° Southwest 187 215 7,000 120 Level FAA TRACON SMA TRACON (SMA)
10:24AM 38.3656 -85.3283 215° Southwest 189 217 7,100 120 Climbing FAA TRACON SMA TRACON (SMA)
10:24AM 38.3525 -85.3408 217° Southwest 191 220 7,100  Level FAA TRACON SMA TRACON (SMA)
10:24AM 38.3389 -85.3536 216° Southwest 195 224 7,100  Level FAA TRACON SMA TRACON (SMA)
10:25AM 38.3222 -85.3697 217° Southwest 196 226 7,100 -180 Level FAA TRACON SMA TRACON (SMA)
10:25AM 38.3086 -85.3822 216° Southwest 195 224 7,000 -180 Descending FAA TRACON SMA TRACON (SMA)
10:25AM 38.2956 -85.3942 216° Southwest 190 219 7,000 120 Level FAA TRACON SMA TRACON (SMA)
10:26AM 38.2825 -85.4069 218° Southwest 189 217 7,100  Climbing FAA TRACON SMA TRACON (SMA)
10:26AM 38.2694 -85.4258 229° Southwest 191 220 7,000  Descending FAA TRACON SMA TRACON (SMA)
10:26AM 38.2686 -85.4469 267° West 197 227 7,100 120 Climbing FAA TRACON SMA TRACON (SMA)
10:27AM 38.2694 -85.4686 273° West 197 227 7,100 -180 Level FAA TRACON SMA TRACON (SMA)
10:27AM 38.2706 -85.4944 273° West 190 219 7,000  Descending FAA TRACON SMA TRACON (SMA)
10:27AM 38.2711 -85.5147 272° West 186 214 7,100  Climbing FAA TRACON SMA TRACON (SMA)
10:28AM 38.2644 -85.5317 243° Southwest 190 219 7,000 -180 Descending FAA TRACON SMA TRACON (SMA)
10:28AM 38.2439 -85.5331 183° South 210 242 7,000 -600 Level FAA TRACON SMA TRACON (SMA)
10:28AM 38.2292 -85.5150 136° Southeast 238 274 6,600 -780 Descending FAA TRACON SMA TRACON (SMA)
10:29AM 38.2219 -85.4892 110° East 252 290 6,500 -780 Descending FAA TRACON SMA TRACON (SMA)
10:29AM 38.2139 -85.4581 108° East 243 280 6,100 -1,080 Descending FAA TRACON SMA TRACON (SMA)
10:29AM 38.2075 -85.4336 108° East 238 274 5,800 -900 Descending FAA TRACON SMA TRACON (SMA)
10:30AM 38.2014 -85.4094 108° East 234 269 5,500 -900 Descending FAA TRACON SMA TRACON (SMA)
10:30AM 38.1925 -85.3806 111° Southeast 229 264 5,200 -960 Descending FAA TRACON SMA TRACON (SMA)
10:30AM 38.1853 -85.3569 111° Southeast 230 265 4,900 -780 Descending FAA TRACON SMA TRACON (SMA)
10:31AM 38.1781 -85.3333 111° Southeast 234 269 4,700 -780 Descending FAA TRACON SMA TRACON (SMA)
10:31AM 38.1619 -85.3117 133° Southeast 238 274 4,400 -780 Descending FAA TRACON SMA TRACON (SMA)
10:31AM 38.1450 -85.3114 179° South 224 258 4,200 -480 Descending FAA TRACON SMA TRACON (SMA)
10:32AM 38.1294 -85.3136 186° South 198 228 4,100 -600 Descending FAA TRACON SMA TRACON (SMA)
10:32AM 38.1114 -85.3214 199° South 190 219 3,800 -780 Descending FAA TRACON SMA TRACON (SMA)
10:32AM 38.1056 -85.3369 245° Southwest 178 205 3,600 -900 Descending FAA TRACON SMA TRACON (SMA)
10:33AM 38.1028 -85.3519 257° West 151 174 3,200 -960 Descending FAA TRACON SMA TRACON (SMA)
10:33AM 38.0997 -85.3658 254° West 137 158 3,000 -480 Descending FAA TRACON SMA TRACON (SMA)
10:33AM 38.0967 -85.3831 257° West 131 151 2,900 -180 Descending FAA TRACON SMA TRACON (SMA)
10:34AM 38.0933 -85.3969 253° West 133 153 2,900 120 Level FAA TRACON SMA TRACON (SMA)
10:34AM 38.0897 -85.4156 256° West 139 160 3,000 120 Climbing FAA TRACON SMA TRACON (SMA)
10:34AM 38.0900 -85.4308 271° West 144 166 3,000 -180 Level FAA TRACON SMA TRACON (SMA)
10:35AM 38.0925 -85.4461 282° West 144 166 2,900 -300 Descending FAA TRACON SMA TRACON (SMA)
10:35AM 38.0953 -85.4614 283° West 144 166 2,800 -300 Descending FAA TRACON SMA TRACON (SMA)
10:35AM 38.1011 -85.4803 291° West 150 173 2,700 -180 Descending FAA TRACON SMA TRACON (SMA)
10:36AM 38.1053 -85.4961 288° West 153 176 2,700  Level FAA TRACON SMA TRACON (SMA)
10:36AM 38.1097 -85.5117 290° West 153 176 2,700 -360 Level FAA TRACON SMA TRACON (SMA)
10:36AM 38.1144 -85.5311 287° West 150 173 2,500 -480 Descending FAA TRACON SMA TRACON (SMA)
10:37AM 38.1192 -85.5464 291° West 150 173 2,400 -300 Descending FAA TRACON SMA TRACON (SMA)